Time;durP1;ratioP1;P1;durP2;ratioP2;P2;SDS_P1;SDS_P2;PMS_P1;PMS_P2;Temp;Humidity;BMP_temperature;BMP_pressure;BME280_temperature;BME280_humidity;BME280_pressure;Samples;Min_cycle;Max_cycle;Signal;HPM_P1;HPM_P2
2022/07/11 00:00:09;;;;;;;12.47;8.73;;;11.20;92.40;;;;;;5075940;28;20185;-73
2022/07/11 00:02:39;;;;;;;14.83;8.83;;;11.20;92.30;;;;;;5069269;28;20175;-75
2022/07/11 00:05:08;;;;;;;10.33;7.67;;;11.20;92.40;;;;;;5072793;28;20193;-77
2022/07/11 00:07:37;;;;;;;11.07;7.43;;;11.30;92.30;;;;;;5070537;28;20691;-77
2022/07/11 00:10:05;;;;;;;8.97;7.50;;;11.30;92.10;;;;;;5070136;28;20233;-77
2022/07/11 00:12:33;;;;;;;10.33;7.33;;;11.50;92.40;;;;;;5068032;28;20218;-75
2022/07/11 00:15:00;;;;;;;9.93;7.03;;;11.50;92.30;;;;;;5065525;28;20739;-76
2022/07/11 00:17:27;;;;;;;9.07;6.30;;;11.60;92.20;;;;;;5073926;28;20236;-74
2022/07/11 00:19:55;;;;;;;6.07;5.53;;;11.50;91.70;;;;;;5065356;28;20236;-74
2022/07/11 00:22:22;;;;;;;7.97;6.07;;;11.50;91.70;;;;;;5062511;28;20198;-74
2022/07/11 00:24:50;;;;;;;6.87;6.00;;;11.50;91.60;;;;;;5067063;28;20194;-77
2022/07/11 00:27:18;;;;;;;10.30;6.47;;;11.40;91.50;;;;;;5067318;28;20560;-77
2022/07/11 00:29:45;;;;;;;8.30;6.53;;;11.50;91.70;;;;;;5066755;28;20242;-74
2022/07/11 00:32:13;;;;;;;8.17;7.40;;;11.70;91.80;;;;;;5066636;28;20506;-72
2022/07/11 00:34:40;;;;;;;6.77;6.17;;;11.80;91.70;;;;;;5056907;28;20180;-74
2022/07/11 00:37:07;;;;;;;7.33;6.63;;;12.00;91.10;;;;;;5053395;28;20274;-75
2022/07/11 00:39:35;;;;;;;8.53;5.83;;;12.10;90.90;;;;;;5053478;28;20703;-73
2022/07/11 00:42:02;;;;;;;5.77;5.17;;;12.30;90.60;;;;;;5059371;28;20179;-73
2022/07/11 00:44:30;;;;;;;8.57;4.30;;;12.60;90.10;;;;;;5060908;28;20176;-74
2022/07/11 00:46:57;;;;;;;6.80;4.20;;;12.60;88.90;;;;;;5053286;28;20176;-75
2022/07/11 00:49:25;;;;;;;5.80;3.90;;;12.80;88.70;;;;;;5052844;28;20564;-74
2022/07/11 00:51:52;;;;;;;4.70;3.00;;;12.90;88.00;;;;;;5053241;28;20179;-73
2022/07/11 00:54:22;;;;;;;5.97;2.57;;;12.80;86.70;;;;;;5055374;28;20701;-75
2022/07/11 00:56:50;;;;;;;7.30;2.80;;;12.90;85.80;;;;;;5071679;28;20166;-74
2022/07/11 00:59:19;;;;;;;4.47;3.07;;;13.10;85.50;;;;;;5053254;28;20171;-75
2022/07/11 01:01:46;;;;;;;4.83;2.37;;;13.20;85.30;;;;;;5052935;28;20183;-78
2022/07/11 01:04:14;;;;;;;4.23;2.40;;;13.20;84.90;;;;;;5052810;28;20190;-75
2022/07/11 01:06:41;;;;;;;5.40;2.33;;;13.40;85.10;;;;;;5058635;28;20652;-76
2022/07/11 01:09:09;;;;;;;5.83;2.30;;;13.70;84.80;;;;;;5072043;28;20222;-76
2022/07/11 01:11:36;;;;;;;5.57;2.57;;;13.80;83.60;;;;;;5063860;28;20171;-78
2022/07/11 01:14:04;;;;;;;4.73;2.33;;;14.10;83.20;;;;;;5056260;28;20647;-80
2022/07/11 01:16:31;;;;;;;6.87;2.20;;;14.30;82.30;;;;;;5052726;28;20176;-75
2022/07/11 01:18:59;;;;;;;7.00;2.10;;;14.30;81.70;;;;;;5054821;28;20164;-76
2022/07/11 01:21:32;;;;;;;9.50;2.47;;;14.10;80.80;;;;;;5069704;28;20168;-78
2022/07/11 01:24:03;;;;;;;4.93;1.90;;;14.00;82.40;;;;;;5052732;28;20672;-76
2022/07/11 01:26:32;;;;;;;6.77;2.37;;;13.90;81.90;;;;;;5060269;28;20284;-78
2022/07/11 01:29:07;;;;;;;3.93;2.13;;;13.90;81.90;;;;;;5057733;28;20207;-76
2022/07/11 01:31:35;;;;;;;6.23;2.03;;;13.90;81.90;;;;;;5060846;28;20191;-76
2022/07/11 01:34:03;;;;;;;7.73;1.90;;;14.00;81.70;;;;;;5078884;28;20180;-73
2022/07/11 01:36:30;;;;;;;7.10;2.20;;;14.00;82.10;;;;;;5067427;28;20180;-74
2022/07/11 01:38:58;;;;;;;5.67;2.07;;;14.00;82.20;;;;;;5052881;28;20266;-78
2022/07/11 01:41:25;;;;;;;4.07;2.20;;;14.20;82.30;;;;;;5062833;28;20259;-76
2022/07/11 01:43:53;;;;;;;7.50;2.20;;;14.30;81.60;;;;;;5052123;28;20168;-77
2022/07/11 01:46:21;;;;;;;7.37;2.23;;;14.40;80.70;;;;;;5052070;28;20257;-78
2022/07/11 01:48:49;;;;;;;8.40;2.10;;;14.50;81.00;;;;;;5057372;28;20744;-80
2022/07/11 01:51:17;;;;;;;4.70;1.80;;;14.60;81.10;;;;;;5052150;28;20237;-77
2022/07/11 01:53:44;;;;;;;9.33;3.10;;;14.60;81.40;;;;;;5051532;28;20176;-76
2022/07/11 01:56:11;;;;;;;6.40;2.33;;;14.30;83.80;;;;;;5068952;28;20186;-73
2022/07/11 01:58:39;;;;;;;6.47;2.83;;;13.70;85.30;;;;;;5063208;28;20229;-73
2022/07/11 02:01:06;;;;;;;6.97;2.53;;;13.60;86.90;;;;;;5072154;28;20183;-73
2022/07/11 02:03:34;;;;;;;8.20;3.47;;;13.30;87.30;;;;;;5068705;28;20191;-74
2022/07/11 02:06:02;;;;;;;7.87;3.40;;;13.20;87.70;;;;;;5070547;28;20521;-75
2022/07/11 02:08:29;;;;;;;9.40;2.90;;;13.30;88.20;;;;;;5053736;28;20274;-75
2022/07/11 02:10:56;;;;;;;8.27;2.60;;;13.20;88.40;;;;;;5063675;28;20183;-75
2022/07/11 02:13:24;;;;;;;4.07;2.60;;;13.20;88.70;;;;;;5064629;28;20176;-75
2022/07/11 02:15:53;;;;;;;7.07;2.27;;;13.20;88.80;;;;;;5067475;28;20175;-76
2022/07/11 02:18:21;;;;;;;6.30;2.87;;;13.10;88.90;;;;;;5064728;28;20179;-75
2022/07/11 02:20:51;;;;;;;7.33;2.70;;;13.10;88.90;;;;;;5065631;28;20220;-74
2022/07/11 02:23:20;;;;;;;11.20;3.07;;;13.10;88.80;;;;;;5061748;28;20230;-75
2022/07/11 02:25:49;;;;;;;15.77;3.40;;;13.10;89.20;;;;;;5061242;28;20237;-75
2022/07/11 02:28:16;;;;;;;9.93;3.33;;;13.20;89.30;;;;;;5051224;28;20231;-76
2022/07/11 02:30:45;;;;;;;11.17;2.93;;;13.20;89.10;;;;;;5052274;28;20214;-74
2022/07/11 02:33:16;;;;;;;10.40;2.90;;;13.30;89.10;;;;;;5051799;28;20581;-76
2022/07/11 02:35:45;;;;;;;6.27;2.90;;;13.50;89.10;;;;;;5051979;28;20258;-76
2022/07/11 02:38:14;;;;;;;10.63;2.77;;;13.80;88.70;;;;;;5051737;28;20256;-75
2022/07/11 02:40:44;;;;;;;9.40;3.27;;;13.90;87.60;;;;;;5052052;28;20573;-75
2022/07/11 02:43:12;;;;;;;15.50;3.30;;;13.80;86.90;;;;;;5052217;28;20214;-76
2022/07/11 02:45:40;;;;;;;10.60;3.63;;;14.20;87.30;;;;;;5052195;28;20186;-77
2022/07/11 02:48:07;;;;;;;11.80;4.30;;;14.80;86.80;;;;;;5073083;28;20243;-75
2022/07/11 02:50:35;;;;;;;12.13;2.90;;;15.20;83.90;;;;;;5061967;28;20186;-75
2022/07/11 02:53:02;;;;;;;11.10;3.00;;;15.40;83.20;;;;;;5055623;28;20301;-77
2022/07/11 02:55:30;;;;;;;10.63;2.93;;;15.70;81.10;;;;;;5067778;28;20192;-77
2022/07/11 02:57:58;;;;;;;5.83;2.60;;;16.10;81.40;;;;;;5055149;28;20211;-77
2022/07/11 03:00:25;;;;;;;8.40;2.87;;;16.40;80.20;;;;;;5065440;28;20254;-78
2022/07/11 03:02:53;;;;;;;8.63;2.47;;;16.40;78.40;;;;;;5075227;28;20174;-79
2022/07/11 03:05:21;;;;;;;10.97;2.10;;;16.60;78.30;;;;;;5058604;28;20184;-78
2022/07/11 03:07:48;;;;;;;8.40;2.03;;;17.00;76.20;;;;;;5072412;28;20176;-77
2022/07/11 03:10:16;;;;;;;7.53;2.33;;;16.60;77.70;;;;;;5053901;28;20704;-78
2022/07/11 03:12:45;;;;;;;6.37;2.13;;;16.20;77.60;;;;;;5054646;28;20265;-78
2022/07/11 03:15:12;;;;;;;7.13;2.30;;;16.40;75.60;;;;;;5060872;28;20527;-85
2022/07/11 03:17:40;;;;;;;7.43;2.13;;;16.40;74.90;;;;;;5067663;28;20259;-81
2022/07/11 03:20:08;;;;;;;8.93;2.33;;;16.40;73.40;;;;;;5069853;28;20633;-81
2022/07/11 03:22:36;;;;;;;7.83;2.37;;;16.80;74.50;;;;;;5057205;28;20261;-80
2022/07/11 03:25:07;;;;;;;6.10;2.03;;;17.10;73.70;;;;;;5065622;28;20309;-81
2022/07/11 03:27:35;;;;;;;9.10;2.00;;;17.40;73.50;;;;;;5071833;28;20223;-81
2022/07/11 03:30:03;;;;;;;8.63;2.23;;;17.30;73.80;;;;;;5067248;28;20670;-80
2022/07/11 03:32:30;;;;;;;6.43;2.17;;;16.80;71.70;;;;;;5054625;28;20598;-79
2022/07/11 03:37:43;;;;;;;6.63;2.10;;;15.80;75.90;;;;;;5074126;28;20235;-78
2022/07/11 03:40:11;;;;;;;4.47;1.77;;;15.30;76.70;;;;;;5074559;28;20190;-79
2022/07/11 03:42:39;;;;;;;7.10;1.80;;;15.20;78.00;;;;;;5073137;28;20190;-80
2022/07/11 03:45:07;;;;;;;7.17;2.03;;;15.00;78.60;;;;;;5070987;28;20188;-80
2022/07/11 03:47:36;;;;;;;10.37;1.97;;;14.90;78.90;;;;;;5065810;28;20201;-80
2022/07/11 03:50:04;;;;;;;5.20;2.10;;;14.90;79.30;;;;;;5067465;28;20207;-80
2022/07/11 03:52:32;;;;;;;7.53;2.03;;;14.80;79.80;;;;;;5072092;28;20254;-80
2022/07/11 03:55:00;;;;;;;11.20;2.33;;;14.90;80.00;;;;;;5062927;28;20636;-80
2022/07/11 03:57:27;;;;;;;7.93;1.90;;;14.80;80.10;;;;;;5069817;28;20312;-80
2022/07/11 03:59:55;;;;;;;8.13;1.80;;;14.80;80.10;;;;;;5054289;28;20187;-80
2022/07/11 04:02:22;;;;;;;9.23;2.00;;;14.70;80.20;;;;;;5053999;28;20185;-81
2022/07/11 04:04:50;;;;;;;12.50;3.07;;;14.70;80.00;;;;;;5053716;28;20176;-80
2022/07/11 04:07:17;;;;;;;12.43;3.00;;;14.70;79.80;;;;;;5054313;28;20906;-80
2022/07/11 04:09:44;;;;;;;16.27;3.57;;;14.80;80.00;;;;;;5063485;28;20333;-79
2022/07/11 04:12:12;;;;;;;6.80;2.63;;;14.80;79.30;;;;;;5061696;28;20188;-79
2022/07/11 04:14:40;;;;;;;7.50;2.57;;;14.70;78.20;;;;;;5055221;28;20180;-80
2022/07/11 04:17:07;;;;;;;6.67;1.87;;;14.60;78.50;;;;;;5074147;28;20185;-77
2022/07/11 04:19:34;;;;;;;5.60;1.80;;;14.60;78.50;;;;;;5060775;28;20237;-77
2022/07/11 04:22:02;;;;;;;6.60;1.70;;;14.60;78.20;;;;;;5062708;28;20589;-78
2022/07/11 04:24:29;;;;;;;5.73;1.50;;;14.50;77.20;;;;;;5059467;28;20194;-78
2022/07/11 04:26:57;;;;;;;14.57;2.00;;;14.40;76.60;;;;;;5053722;28;20215;-80
2022/07/11 04:29:25;;;;;;;7.10;2.13;;;14.30;77.20;;;;;;5058235;28;20219;-78
2022/07/11 04:31:52;;;;;;;8.97;1.90;;;14.40;77.70;;;;;;5069275;28;20183;-78
2022/07/11 04:34:20;;;;;;;4.10;1.57;;;14.50;77.80;;;;;;5061694;28;20266;-79
2022/07/11 04:36:47;;;;;;;9.97;1.97;;;14.40;78.00;;;;;;5091603;28;20186;-79
2022/07/11 04:39:15;;;;;;;7.50;2.30;;;14.40;78.50;;;;;;5082917;28;20179;-78
2022/07/11 04:41:42;;;;;;;5.13;1.67;;;14.50;78.80;;;;;;5076092;28;20210;-78
2022/07/11 04:44:10;;;;;;;3.80;1.50;;;14.40;79.30;;;;;;5054270;28;20180;-79
2022/07/11 04:46:38;;;;;;;8.70;1.77;;;14.30;79.80;;;;;;5063975;28;20615;-77
2022/07/11 04:49:05;;;;;;;7.53;2.10;;;14.20;79.60;;;;;;5058958;28;20294;-80
2022/07/11 04:51:33;;;;;;;3.87;1.40;;;14.20;79.70;;;;;;5090363;28;20190;-78
2022/07/11 04:54:00;;;;;;;7.00;1.60;;;14.20;80.20;;;;;;5070352;28;20199;-78
2022/07/11 04:56:28;;;;;;;10.57;1.70;;;14.20;80.70;;;;;;5064728;28;20239;-77
2022/07/11 04:58:55;;;;;;;5.70;1.30;;;14.20;80.90;;;;;;5083517;28;20190;-78
2022/07/11 05:01:23;;;;;;;7.47;1.50;;;14.10;80.20;;;;;;5070093;28;20184;-78
2022/07/11 05:03:50;;;;;;;7.93;1.60;;;14.10;79.70;;;;;;5052768;28;20172;-78
2022/07/11 05:06:18;;;;;;;5.33;1.60;;;14.20;80.10;;;;;;5051495;28;20262;-78
2022/07/11 05:08:45;;;;;;;7.00;1.90;;;14.20;79.90;;;;;;5080787;28;20209;-78
2022/07/11 05:11:13;;;;;;;4.63;2.13;;;14.20;78.40;;;;;;5067714;28;20695;-78
2022/07/11 05:13:41;;;;;;;6.10;1.57;;;14.20;78.70;;;;;;5053255;28;20176;-78
2022/07/11 05:16:08;;;;;;;9.83;1.83;;;14.20;78.40;;;;;;5052266;28;20175;-78
2022/07/11 05:18:37;;;;;;;3.77;1.30;;;14.20;78.00;;;;;;5080370;28;20178;-77
2022/07/11 05:21:05;;;;;;;4.20;1.77;;;14.30;78.10;;;;;;5084017;28;20186;-78
2022/07/11 05:23:32;;;;;;;7.37;2.20;;;14.30;78.30;;;;;;5065034;28;20182;-78
2022/07/11 05:26:01;;;;;;;7.60;1.47;;;14.30;78.60;;;;;;5067821;28;20175;-77
2022/07/11 05:28:28;;;;;;;7.10;1.60;;;14.30;79.20;;;;;;5063579;28;20231;-77
2022/07/11 05:30:56;;;;;;;7.43;1.60;;;14.30;78.90;;;;;;5052949;28;20237;-77
2022/07/11 05:33:23;;;;;;;7.10;1.90;;;14.30;79.10;;;;;;5062892;28;20180;-77
2022/07/11 05:35:50;;;;;;;4.50;1.73;;;14.30;79.50;;;;;;5052049;28;20207;-78
2022/07/11 05:38:18;;;;;;;6.70;1.50;;;14.30;79.10;;;;;;5061893;28;20626;-78
2022/07/11 05:40:45;;;;;;;5.50;1.47;;;14.30;79.30;;;;;;5064128;28;20584;-78
2022/07/11 05:43:12;;;;;;;6.73;1.67;;;14.20;79.70;;;;;;5068618;28;20782;-78
2022/07/11 05:45:40;;;;;;;5.40;1.90;;;14.20;80.00;;;;;;5073217;28;20179;-78
2022/07/11 05:48:07;;;;;;;8.70;1.70;;;14.10;79.90;;;;;;5065993;28;20183;-77
2022/07/11 05:50:35;;;;;;;5.97;1.90;;;14.10;79.80;;;;;;5071143;28;20276;-78
2022/07/11 05:53:02;;;;;;;8.40;1.83;;;14.00;79.50;;;;;;5068126;28;20183;-78
2022/07/11 05:55:30;;;;;;;6.53;2.13;;;14.00;79.60;;;;;;5062624;28;20241;-77
2022/07/11 05:57:59;;;;;;;7.50;2.40;;;14.00;80.40;;;;;;5057263;28;20183;-78
2022/07/11 06:00:27;;;;;;;10.70;2.80;;;14.00;80.60;;;;;;5052240;28;20183;-78
2022/07/11 06:02:54;;;;;;;11.03;2.67;;;14.00;80.50;;;;;;5053179;28;20176;-78
2022/07/11 06:05:22;;;;;;;9.67;2.50;;;13.90;80.70;;;;;;5076781;28;20245;-77
2022/07/11 06:10:35;;;;;;;11.13;3.53;;;13.80;81.20;;;;;;5052300;28;20223;-78
2022/07/11 06:13:02;;;;;;;9.13;3.07;;;13.80;81.60;;;;;;5074995;28;20273;-78
2022/07/11 06:15:30;;;;;;;8.67;2.87;;;13.80;81.90;;;;;;5078305;28;20651;-78
2022/07/11 06:17:57;;;;;;;8.13;2.57;;;13.80;82.00;;;;;;5068558;28;20172;-78
2022/07/11 06:20:25;;;;;;;9.40;2.27;;;13.80;82.60;;;;;;5072088;28;20179;-78
2022/07/11 06:22:53;;;;;;;6.97;2.43;;;13.70;83.10;;;;;;5066944;28;20184;-78
2022/07/11 06:25:20;;;;;;;10.60;2.50;;;13.70;83.50;;;;;;5057539;28;20189;-78
2022/07/11 06:27:48;;;;;;;8.40;3.20;;;13.60;83.90;;;;;;5075571;28;20703;-77
2022/07/11 06:30:15;;;;;;;10.17;2.83;;;13.60;84.40;;;;;;5067134;28;20227;-78
2022/07/11 06:32:42;;;;;;;10.23;3.00;;;13.60;84.80;;;;;;5056557;28;20172;-77
2022/07/11 06:35:10;;;;;;;11.43;3.40;;;13.50;84.80;;;;;;5077183;28;20184;-77
2022/07/11 06:37:37;;;;;;;6.43;3.07;;;13.40;85.10;;;;;;5064822;28;20180;-78
2022/07/11 06:40:10;;;;;;;15.27;4.17;;;13.30;85.40;;;;;;5064979;28;20228;-77
2022/07/11 06:42:38;;;;;;;10.30;3.87;;;13.30;85.40;;;;;;5085624;28;20202;-78
2022/07/11 06:45:06;;;;;;;14.50;4.53;;;13.30;85.60;;;;;;5071001;28;20185;-77
2022/07/11 06:47:34;;;;;;;14.97;3.97;;;13.20;85.80;;;;;;5061744;28;20180;-77
2022/07/11 06:50:01;;;;;;;20.60;4.77;;;13.20;86.10;;;;;;5055716;28;20216;-77
2022/07/11 06:52:29;;;;;;;11.53;3.43;;;13.20;86.20;;;;;;5055787;28;20558;-77
2022/07/11 06:54:58;;;;;;;9.87;3.83;;;13.10;86.40;;;;;;5065229;28;20195;-77
2022/07/11 06:57:25;;;;;;;11.37;3.63;;;13.00;86.80;;;;;;5068266;28;20180;-78
2022/07/11 06:59:53;;;;;;;39.83;22.20;;;12.90;87.00;;;;;;5078050;28;20654;-78
2022/07/11 07:02:23;;;;;;;17.07;8.87;;;12.90;87.30;;;;;;5068536;28;20187;-78
2022/07/11 07:04:50;;;;;;;12.17;4.40;;;12.90;87.40;;;;;;5055231;28;20198;-77
2022/07/11 07:07:17;;;;;;;14.77;4.10;;;12.80;87.50;;;;;;5066767;28;20186;-78
2022/07/11 07:09:45;;;;;;;15.93;3.90;;;12.80;87.60;;;;;;5086968;28;20214;-78
2022/07/11 07:12:13;;;;;;;8.23;3.13;;;12.70;87.70;;;;;;5076267;28;20587;-78
2022/07/11 07:14:41;;;;;;;14.00;3.90;;;12.70;87.90;;;;;;5055099;28;20176;-78
2022/07/11 07:17:08;;;;;;;11.63;3.80;;;12.60;88.10;;;;;;5076656;28;20231;-78
2022/07/11 07:19:36;;;;;;;9.20;4.10;;;12.50;88.20;;;;;;5058890;28;20298;-76
2022/07/11 07:22:05;;;;;;;11.00;4.47;;;12.60;88.60;;;;;;5055286;28;20229;-76
2022/07/11 07:24:33;;;;;;;9.27;4.00;;;12.60;88.90;;;;;;5066064;28;20187;-76
2022/07/11 07:27:01;;;;;;;11.50;4.43;;;12.60;89.00;;;;;;5070737;28;20224;-76
2022/07/11 07:29:28;;;;;;;11.93;4.33;;;12.60;89.10;;;;;;5085780;28;20210;-77
2022/07/11 07:31:55;;;;;;;12.97;4.33;;;12.50;89.10;;;;;;5093708;28;20182;-76
2022/07/11 07:34:23;;;;;;;11.00;4.77;;;12.40;89.10;;;;;;5063329;28;20179;-78
2022/07/11 07:36:50;;;;;;;11.03;5.33;;;12.40;89.40;;;;;;5071961;28;20784;-78
2022/07/11 07:39:18;;;;;;;13.20;4.90;;;12.30;89.80;;;;;;5054681;28;20232;-78
2022/07/11 07:41:46;;;;;;;13.40;4.47;;;12.30;90.10;;;;;;5061388;28;20270;-77
2022/07/11 07:44:13;;;;;;;16.57;4.83;;;12.30;90.00;;;;;;5056631;28;20204;-77
2022/07/11 07:46:41;;;;;;;9.50;4.83;;;12.30;90.20;;;;;;5065031;28;20281;-78
2022/07/11 07:49:08;;;;;;;12.50;5.13;;;12.30;90.20;;;;;;5063849;28;20207;-77
2022/07/11 07:51:36;;;;;;;8.17;3.97;;;12.30;90.30;;;;;;5059730;28;20206;-77
2022/07/11 07:54:03;;;;;;;12.07;5.17;;;12.20;90.20;;;;;;5054504;28;20190;-78
2022/07/11 07:56:30;;;;;;;14.57;5.20;;;12.20;90.40;;;;;;5068588;28;20197;-77
2022/07/11 07:58:58;;;;;;;11.57;5.07;;;12.20;90.50;;;;;;5084868;28;20572;-77
2022/07/11 08:01:40;;;;;;;16.17;5.17;;;12.30;90.50;;;;;;5058310;28;20243;-77
2022/07/11 08:04:10;;;;;;;13.93;7.50;;;12.20;90.60;;;;;;5053656;28;20188;-77
2022/07/11 08:06:38;;;;;;;14.97;5.23;;;12.20;90.70;;;;;;5062735;28;20178;-77
2022/07/11 08:09:06;;;;;;;16.23;5.40;;;12.20;90.60;;;;;;5053992;28;20216;-77
2022/07/11 08:11:35;;;;;;;15.63;6.20;;;12.20;90.90;;;;;;5073553;28;20270;-77
2022/07/11 08:14:04;;;;;;;10.80;5.30;;;12.20;90.90;;;;;;5058584;28;20195;-78
2022/07/11 08:16:32;;;;;;;11.90;6.00;;;12.20;91.10;;;;;;5068439;28;20194;-77
2022/07/11 08:19:01;;;;;;;14.17;6.30;;;12.10;90.90;;;;;;5053479;28;20182;-77
2022/07/11 08:21:30;;;;;;;17.13;7.03;;;12.00;90.90;;;;;;5054231;28;20595;-77
2022/07/11 08:23:58;;;;;;;20.70;8.83;;;11.90;90.80;;;;;;5052702;28;20218;-77
2022/07/11 08:26:25;;;;;;;17.10;8.23;;;11.90;91.10;;;;;;5053451;28;20180;-78
2022/07/11 08:28:53;;;;;;;14.73;6.70;;;11.80;91.00;;;;;;5053814;28;20562;-77
2022/07/11 08:31:20;;;;;;;13.80;7.87;;;11.70;91.00;;;;;;5053637;28;20524;-77
2022/07/11 08:33:48;;;;;;;11.33;6.60;;;11.70;91.20;;;;;;5053367;28;20204;-77
2022/07/11 08:36:15;;;;;;;13.63;6.87;;;11.70;91.20;;;;;;5065494;28;20580;-78
2022/07/11 08:38:46;;;;;;;11.57;6.70;;;11.70;91.30;;;;;;5060747;28;20180;-77
2022/07/11 08:41:15;;;;;;;18.03;7.27;;;11.70;91.30;;;;;;5060570;28;20577;-77
2022/07/11 08:43:43;;;;;;;10.27;5.67;;;11.60;91.60;;;;;;5053888;28;20630;-77
2022/07/11 08:46:14;;;;;;;11.70;5.60;;;11.60;91.50;;;;;;5052968;28;20251;-77
2022/07/11 08:48:43;;;;;;;11.00;5.90;;;11.60;91.50;;;;;;5056470;28;20226;-77
2022/07/11 08:51:11;;;;;;;12.80;6.80;;;11.50;91.50;;;;;;5053452;28;20186;-77
2022/07/11 08:53:44;;;;;;;13.80;5.97;;;11.60;91.60;;;;;;5067262;28;20199;-78
2022/07/11 08:56:17;;;;;;;16.60;6.20;;;11.50;91.60;;;;;;5059400;28;20267;-77
2022/07/11 08:58:46;;;;;;;15.83;8.67;;;11.40;91.70;;;;;;5053246;28;20641;-77
2022/07/11 09:01:16;;;;;;;14.63;7.83;;;11.50;92.00;;;;;;5052971;28;20179;-77
2022/07/11 09:03:44;;;;;;;14.70;7.60;;;11.50;91.90;;;;;;5053545;28;20269;-77
2022/07/11 09:06:13;;;;;;;12.83;6.93;;;11.40;91.90;;;;;;5052825;28;20507;-77
2022/07/11 09:08:40;;;;;;;13.40;6.60;;;11.30;91.90;;;;;;5058415;28;20219;-77
2022/07/11 09:11:10;;;;;;;13.40;6.83;;;11.30;92.10;;;;;;5065498;28;20658;-77
2022/07/11 09:13:37;;;;;;;14.17;7.27;;;11.30;92.00;;;;;;5056890;28;20536;-77
2022/07/11 09:16:07;;;;;;;12.30;7.40;;;11.30;92.10;;;;;;5054792;28;20271;-77
2022/07/11 09:18:43;;;;;;;16.30;8.60;;;11.30;92.20;;;;;;5052599;28;20189;-77
2022/07/11 09:26:52;;;;;;;19.73;14.03;;;11.20;92.30;;;;;;5051602;28;20226;-76
2022/07/11 09:29:24;;;;;;;21.50;13.53;;;11.10;92.40;;;;;;5052468;28;20771;-77
2022/07/11 09:31:52;;;;;;;21.13;13.10;;;11.10;92.50;;;;;;5052699;28;20180;-76
2022/07/11 09:34:23;;;;;;;18.77;12.77;;;11.10;92.60;;;;;;5055077;28;20191;-77
2022/07/11 09:36:55;;;;;;;21.03;13.13;;;11.10;92.60;;;;;;5058901;28;20641;-77
2022/07/11 09:39:28;;;;;;;22.57;12.93;;;11.10;92.60;;;;;;5057665;28;20744;-76
2022/07/11 09:41:56;;;;;;;21.07;11.50;;;11.10;92.70;;;;;;5063551;28;20217;-77
2022/07/11 09:44:33;;;;;;;20.23;11.63;;;11.10;92.70;;;;;;5053402;28;20179;-77
2022/07/11 09:47:08;;;;;;;19.60;10.23;;;11.10;92.70;;;;;;5054630;28;20616;-77
2022/07/11 09:49:40;;;;;;;18.13;9.73;;;11.10;92.70;;;;;;5052754;28;20211;-77
2022/07/11 09:52:17;;;;;;;21.77;10.07;;;11.20;92.80;;;;;;5060434;28;20213;-77
2022/07/11 09:55:01;;;;;;;20.27;11.30;;;11.10;92.80;;;;;;5058778;28;20652;-77
2022/07/11 09:57:40;;;;;;;22.77;13.13;;;11.10;92.90;;;;;;5055757;28;20175;-76
2022/07/11 10:00:11;;;;;;;24.40;15.77;;;11.10;92.90;;;;;;5058337;28;20266;-77
2022/07/11 10:02:39;;;;;;;44.27;27.07;;;11.10;92.80;;;;;;5062270;28;20176;-77
2022/07/11 10:05:07;;;;;;;52.93;32.40;;;11.10;92.80;;;;;;5058676;28;20629;-76
2022/07/11 10:07:34;;;;;;;48.60;29.30;;;11.10;92.80;;;;;;5058582;28;20233;-74
2022/07/11 10:10:04;;;;;;;39.40;23.97;;;11.10;92.90;;;;;;5059306;28;20207;-77
2022/07/11 10:12:32;;;;;;;32.17;20.53;;;11.00;92.80;;;;;;5071568;28;20649;-75
2022/07/11 10:15:08;;;;;;;18.90;14.40;;;11.10;93.00;;;;;;5068957;28;20185;-78
2022/07/11 10:17:47;;;;;;;28.37;18.70;;;11.10;93.00;;;;;;5074566;28;20268;-77
2022/07/11 10:20:18;;;;;;;27.43;16.93;;;11.10;93.00;;;;;;5058242;28;20179;-77
2022/07/11 10:23:00;;;;;;;32.03;17.00;;;11.00;93.00;;;;;;5061564;28;20236;-77
2022/07/11 10:25:45;;;;;;;24.83;15.70;;;11.00;93.00;;;;;;5077638;28;20671;-76
2022/07/11 10:28:25;;;;;;;24.53;15.20;;;11.00;93.00;;;;;;5058422;28;20194;-77
2022/07/11 10:30:59;;;;;;;23.47;13.47;;;11.00;93.00;;;;;;5060461;28;20668;-77
2022/07/11 10:33:28;;;;;;;19.40;13.30;;;11.00;93.00;;;;;;5068700;28;20179;-77
2022/07/11 10:35:56;;;;;;;17.90;12.27;;;11.00;93.10;;;;;;5058148;28;20239;-77
2022/07/11 10:38:24;;;;;;;16.60;11.30;;;11.00;93.10;;;;;;5059989;28;20182;-77
2022/07/11 10:40:59;;;;;;;16.90;9.83;;;11.00;93.20;;;;;;5059843;28;20586;-77
2022/07/11 10:43:35;;;;;;;16.00;9.70;;;11.00;93.20;;;;;;5070789;28;20649;-77
2022/07/11 10:46:11;;;;;;;15.30;10.07;;;11.00;93.30;;;;;;5058346;28;20229;-77
2022/07/11 10:49:15;;;;;;;21.93;11.20;;;11.00;93.40;;;;;;5066390;28;20227;-77
2022/07/11 10:51:43;;;;;;;16.13;10.10;;;11.10;93.40;;;;;;5065222;28;20189;-77
2022/07/11 10:54:26;;;;;;;18.67;10.57;;;11.00;93.30;;;;;;5068456;28;20182;-77
2022/07/11 10:57:30;;;;;;;14.73;10.60;;;11.00;93.40;;;;;;5059257;28;20171;-77
2022/07/11 11:00:19;;;;;;;16.07;9.80;;;11.00;93.30;;;;;;5060558;28;20189;-77
2022/07/11 11:03:06;;;;;;;19.03;11.70;;;11.00;93.40;;;;;;5077681;28;20179;-77
2022/07/11 11:05:54;;;;;;;20.13;11.43;;;11.00;93.50;;;;;;5058194;28;20182;-77
2022/07/11 11:11:05;;;;;;;22.60;11.50;;;11.00;93.50;;;;;;5063109;28;20191;-77
2022/07/11 11:13:36;;;;;;;22.63;11.40;;;11.00;93.50;;;;;;5062267;28;20176;-77
2022/07/11 11:16:25;;;;;;;19.43;12.27;;;11.00;93.50;;;;;;5054952;28;20201;-77
2022/07/11 11:18:52;;;;;;;16.03;12.67;;;11.00;93.40;;;;;;5080002;28;20187;-77
2022/07/11 11:21:21;;;;;;;22.07;12.77;;;10.90;93.30;;;;;;5072766;28;20182;-77
2022/07/11 11:23:59;;;;;;;16.33;11.43;;;10.80;93.30;;;;;;5075899;28;20205;-77
2022/07/11 11:26:47;;;;;;;20.23;12.77;;;10.80;93.40;;;;;;5071101;28;20182;-77
2022/07/11 11:29:20;;;;;;;20.00;12.10;;;10.80;93.50;;;;;;5062879;28;20218;-77
2022/07/11 11:31:52;;;;;;;15.23;11.43;;;10.80;93.60;;;;;;5069928;28;20663;-77
2022/07/11 11:34:20;;;;;;;23.20;12.50;;;10.80;93.60;;;;;;5056415;28;20180;-77
2022/07/11 11:37:01;;;;;;;18.10;11.67;;;10.80;93.60;;;;;;5062592;28;20172;-78
2022/07/11 11:39:34;;;;;;;16.53;11.40;;;10.80;93.70;;;;;;5060150;28;20179;-77
2022/07/11 11:42:04;;;;;;;20.70;12.37;;;10.80;93.70;;;;;;5055576;28;20175;-77
2022/07/11 11:44:33;;;;;;;19.73;12.20;;;10.80;93.70;;;;;;5065969;28;20264;-78
2022/07/11 11:47:00;;;;;;;15.20;11.87;;;10.90;93.80;;;;;;5060315;28;20227;-78
2022/07/11 11:49:28;;;;;;;18.20;12.57;;;10.80;93.70;;;;;;5074144;28;20286;-77
2022/07/11 11:51:56;;;;;;;20.93;12.83;;;10.80;93.70;;;;;;5066114;28;20177;-75
2022/07/11 11:54:26;;;;;;;19.97;14.07;;;10.80;93.70;;;;;;5085692;28;20192;-75
2022/07/11 11:56:53;;;;;;;19.00;13.87;;;10.70;93.60;;;;;;5055055;28;20190;-75
2022/07/11 11:59:31;;;;;;;16.30;13.43;;;10.70;93.70;;;;;;5065908;28;20660;-75
2022/07/11 12:01:59;;;;;;;18.77;13.13;;;10.70;93.70;;;;;;5056456;28;20645;-75
2022/07/11 12:04:36;;;;;;;19.37;13.63;;;10.70;93.70;;;;;;5054542;28;20193;-75
2022/07/11 12:07:04;;;;;;;22.50;13.57;;;10.70;93.80;;;;;;5054572;28;20175;-75
2022/07/11 12:09:47;;;;;;;26.43;14.30;;;10.70;93.80;;;;;;5056541;28;20207;-74
2022/07/11 12:12:45;;;;;;;23.63;14.43;;;10.70;93.90;;;;;;5064752;28;20218;-77
2022/07/11 12:18:24;;;;;;;21.43;13.87;;;10.70;94.10;;;;;;5071532;28;20278;-76
2022/07/11 12:20:52;;;;;;;18.47;14.53;;;10.70;94.00;;;;;;5063405;28;20265;-76
2022/07/11 12:23:20;;;;;;;24.13;15.07;;;10.70;94.00;;;;;;5101240;28;20332;-76
2022/07/11 12:25:50;;;;;;;25.77;15.77;;;10.70;94.20;;;;;;5062643;28;20187;-76
2022/07/11 12:28:18;;;;;;;19.83;15.63;;;10.60;94.00;;;;;;5061531;28;20269;-76
2022/07/11 12:30:45;;;;;;;21.87;16.33;;;10.70;94.20;;;;;;5052308;28;20293;-76
2022/07/11 12:33:15;;;;;;;23.27;15.67;;;10.60;94.00;;;;;;5070265;28;20189;-76
2022/07/11 12:35:57;;;;;;;26.80;16.10;;;10.60;94.10;;;;;;5053280;28;20191;-77
2022/07/11 12:38:25;;;;;;;27.37;16.00;;;10.60;94.20;;;;;;5053085;28;20576;-77
2022/07/11 12:41:18;;;;;;;26.23;15.57;;;10.60;94.20;;;;;;5054002;28;20178;-76
2022/07/11 12:46:37;;;;;;;23.17;14.57;;;10.60;94.20;;;;;;5058619;28;20665;-76
2022/07/11 12:49:07;;;;;;;27.70;16.40;;;10.50;94.10;;;;;;5058862;28;20211;-76
2022/07/11 12:51:40;;;;;;;21.73;15.37;;;10.50;94.10;;;;;;5072491;28;20187;-77
2022/07/11 12:54:09;;;;;;;27.83;16.43;;;10.50;94.20;;;;;;5064847;28;20203;-77
2022/07/11 12:56:38;;;;;;;19.83;15.07;;;10.50;94.30;;;;;;5070895;28;20259;-77
2022/07/11 12:59:06;;;;;;;22.50;16.00;;;10.50;94.20;;;;;;5067985;28;20649;-78
2022/07/11 13:01:34;;;;;;;21.40;15.33;;;10.50;94.20;;;;;;5068829;28;20198;-77
2022/07/11 13:04:02;;;;;;;29.67;17.37;;;10.50;94.20;;;;;;5060131;28;20166;-78
2022/07/11 13:09:16;;;;;;;26.83;15.80;;;10.40;94.20;;;;;;5063491;28;20232;-77
2022/07/11 13:11:43;;;;;;;28.07;16.80;;;10.40;94.30;;;;;;5064558;28;20181;-74